Time;durP1;ratioP1;P1;durP2;ratioP2;P2;SDS_P1;SDS_P2;PMS_P1;PMS_P2;Temp;Humidity;BMP_temperature;BMP_pressure;BME280_temperature;BME280_humidity;BME280_pressure;Samples;Min_cycle;Max_cycle;Signal;HPM_P1;HPM_P2
2022/11/28 00:01:32;;;;;;;6.53;6.03;;;;;;;8.38;74.39;100269.63;5073394;28;20224;-67
2022/11/28 00:03:59;;;;;;;6.87;6.10;;;;;;;8.44;74.28;100269.81;5075728;28;20211;-66
2022/11/28 00:06:26;;;;;;;7.23;6.53;;;;;;;8.43;74.43;100256.72;5080767;28;20264;-66
2022/11/28 00:08:53;;;;;;;7.33;6.50;;;;;;;8.51;74.65;100269.97;5096443;28;20251;-65
2022/11/28 00:11:20;;;;;;;7.20;6.50;;;;;;;8.60;74.42;100261.03;5095481;28;20659;-65
2022/11/28 00:13:47;;;;;;;6.17;5.77;;;;;;;8.66;74.29;100257.75;5096165;28;20267;-65
2022/11/28 00:16:16;;;;;;;7.83;7.03;;;;;;;8.71;74.04;100258.06;5095196;28;20199;-66
2022/11/28 00:18:44;;;;;;;7.77;7.03;;;;;;;8.79;73.97;100271.31;5095867;28;20343;-65
2022/11/28 00:21:12;;;;;;;8.13;7.33;;;;;;;8.82;74.26;100263.06;5095099;28;20219;-65
2022/11/28 00:23:39;;;;;;;7.77;7.13;;;;;;;8.87;74.24;100260.72;5095299;28;20227;-65
2022/11/28 00:26:08;;;;;;;8.97;7.47;;;;;;;8.85;74.49;100258.25;5095156;28;20573;-65
2022/11/28 00:28:35;;;;;;;8.53;7.73;;;;;;;8.87;75.87;100261.53;5095788;28;20187;-65
2022/11/28 00:31:02;;;;;;;8.73;8.03;;;;;;;8.83;77.32;100256.75;5079661;28;20192;-66
2022/11/28 00:33:30;;;;;;;8.07;7.37;;;;;;;8.83;77.25;100256.75;5074848;28;20726;-65
2022/11/28 00:36:00;;;;;;;8.67;7.87;;;;;;;8.73;77.60;100253.44;5074957;28;20192;-65
2022/11/28 00:38:28;;;;;;;10.47;8.33;;;;;;;8.71;77.56;100258.91;5075492;28;20241;-64
2022/11/28 00:41:02;;;;;;;8.57;7.77;;;;;;;8.73;77.93;100258.72;5074569;28;20717;-64
2022/11/28 00:43:29;;;;;;;10.50;8.23;;;;;;;8.75;78.75;100254.94;5074695;28;20655;-65
2022/11/28 00:45:56;;;;;;;8.63;7.83;;;;;;;8.68;81.05;100253.09;5074572;28;20196;-64
2022/11/28 00:48:23;;;;;;;9.40;8.47;;;;;;;8.69;82.90;100247.66;5074592;28;20192;-64
2022/11/28 00:50:50;;;;;;;9.67;8.77;;;;;;;8.75;83.10;100246.16;5074705;28;20261;-64
2022/11/28 00:53:19;;;;;;;10.40;9.40;;;;;;;8.80;83.28;100243.84;5074771;28;20245;-65
2022/11/28 00:55:46;;;;;;;10.17;9.23;;;;;;;8.80;83.61;100249.97;5075379;28;20196;-65
2022/11/28 00:58:12;;;;;;;10.07;9.17;;;;;;;8.72;82.86;100246.47;5074685;28;20192;-65
2022/11/28 01:00:39;;;;;;;10.40;9.40;;;;;;;8.68;82.01;100242.50;5074518;28;20249;-66
2022/11/28 01:03:06;;;;;;;10.27;9.07;;;;;;;8.71;82.09;100244.84;5074276;28;20253;-65
2022/11/28 01:05:33;;;;;;;11.00;8.47;;;;;;;8.73;82.13;100242.84;5075126;28;20246;-65
2022/11/28 01:07:59;;;;;;;8.70;7.93;;;;;;;8.56;81.17;100236.72;5092825;28;20191;-66
2022/11/28 01:10:27;;;;;;;8.97;8.07;;;;;;;8.43;81.84;100235.56;5094753;28;20252;-65
2022/11/28 01:12:54;;;;;;;9.10;7.90;;;;;;;8.34;82.19;100236.53;5093512;28;20195;-65
2022/11/28 01:15:21;;;;;;;8.97;8.17;;;;;;;8.26;81.96;100237.38;5094660;28;20225;-65
2022/11/28 01:17:48;;;;;;;9.37;7.57;;;;;;;8.14;83.05;100240.44;5094621;28;20227;-65
2022/11/28 01:20:14;;;;;;;8.13;7.33;;;;;;;8.05;82.54;100239.56;5094237;28;20200;-65
2022/11/28 01:22:41;;;;;;;8.67;7.80;;;;;;;8.00;83.64;100227.84;5094350;28;20215;-65
2022/11/28 01:25:08;;;;;;;10.83;8.47;;;;;;;8.02;84.02;100231.16;5094726;28;20256;-65
2022/11/28 01:27:36;;;;;;;8.57;7.77;;;;;;;8.03;83.69;100227.50;5094332;28;20580;-65
2022/11/28 01:30:04;;;;;;;8.70;7.80;;;;;;;8.01;83.59;100234.78;5086541;28;20192;-65
2022/11/28 01:32:30;;;;;;;9.37;8.00;;;;;;;8.04;84.63;100229.19;5073632;28;20250;-66
2022/11/28 01:34:57;;;;;;;8.87;7.70;;;;;;;8.10;85.04;100236.47;5074887;28;20192;-66
2022/11/28 01:37:24;;;;;;;8.90;7.90;;;;;;;7.92;83.86;100238.41;5074164;28;20228;-66
2022/11/28 01:39:51;;;;;;;8.93;8.13;;;;;;;7.93;84.34;100230.28;5073872;28;20192;-66
2022/11/28 01:42:18;;;;;;;9.00;8.07;;;;;;;7.96;85.04;100231.81;5055708;28;20277;-66
2022/11/28 01:45:07;;;;;;;8.87;8.03;;;;;;;8.06;85.22;100240.41;5073888;28;20253;-66
2022/11/28 01:47:35;;;;;;;9.00;7.90;;;;;;;8.05;84.30;100225.53;5073459;28;20242;-66
2022/11/28 01:50:04;;;;;;;10.07;8.77;;;;;;;8.11;84.61;100230.16;5073438;28;20246;-65
2022/11/28 01:52:31;;;;;;;8.40;7.57;;;;;;;8.05;85.29;100222.91;5073277;28;20231;-66
2022/11/28 01:55:00;;;;;;;8.10;7.37;;;;;;;7.90;85.44;100227.16;5073318;28;20214;-66
2022/11/28 01:57:28;;;;;;;9.63;7.97;;;;;;;7.63;85.49;100224.75;5073211;28;20195;-66
2022/11/28 02:00:00;;;;;;;8.03;7.33;;;;;;;7.59;87.19;100218.13;5073805;28;20196;-66
2022/11/28 02:02:35;;;;;;;7.87;7.17;;;;;;;7.49;87.41;100214.78;5073603;28;20207;-66
2022/11/28 02:05:02;;;;;;;7.50;6.90;;;;;;;7.44;87.69;100209.13;5073649;28;20249;-66
2022/11/28 02:07:29;;;;;;;7.37;6.77;;;;;;;7.49;87.56;100212.13;5086816;28;20666;-66
2022/11/28 02:09:56;;;;;;;7.57;6.87;;;;;;;7.45;87.76;100213.44;5094154;28;20188;-65
2022/11/28 02:12:34;;;;;;;8.27;7.57;;;;;;;7.51;88.75;100210.16;5093774;28;20198;-66
2022/11/28 02:15:33;;;;;;;7.70;7.00;;;;;;;7.58;88.05;100208.53;5093268;28;20232;-66
2022/11/28 02:18:18;;;;;;;8.23;7.47;;;;;;;7.65;88.74;100212.19;5093046;28;20314;-67
2022/11/28 02:21:06;;;;;;;8.00;7.30;;;;;;;7.68;88.92;100206.59;5093151;28;20744;-66
2022/11/28 02:23:51;;;;;;;9.70;7.40;;;;;;;7.61;88.51;100200.28;5092740;28;20612;-66
2022/11/28 02:26:55;;;;;;;7.53;6.93;;;;;;;7.46;88.83;100202.69;5093457;28;20212;-66
2022/11/28 02:29:54;;;;;;;8.30;7.50;;;;;;;7.46;89.27;100196.56;5091567;28;20183;-66
2022/11/28 02:32:35;;;;;;;7.90;7.20;;;;;;;7.48;89.21;100194.63;5070267;28;20665;-66
2022/11/28 02:35:11;;;;;;;9.40;7.77;;;;;;;7.48;90.56;100210.47;5073441;28;20528;-66
2022/11/28 02:37:46;;;;;;;7.73;7.03;;;;;;;7.43;89.76;100204.84;5072505;28;20247;-66
2022/11/28 02:40:23;;;;;;;7.97;7.23;;;;;;;7.40;90.89;100194.59;5072803;28;20244;-66
2022/11/28 02:42:59;;;;;;;8.27;7.57;;;;;;;7.42;90.58;100205.81;5073052;28;20210;-66
2022/11/28 02:45:35;;;;;;;8.30;7.50;;;;;;;7.34;91.05;100198.69;5072409;28;20729;-66
2022/11/28 02:48:07;;;;;;;8.17;7.47;;;;;;;7.34;91.48;100205.75;5072785;28;20187;-67
2022/11/28 02:50:38;;;;;;;8.10;7.30;;;;;;;7.44;92.08;100204.69;5072649;28;20192;-67
2022/11/28 02:53:08;;;;;;;8.87;8.13;;;;;;;7.47;92.14;100203.53;5073844;28;20275;-66
2022/11/28 02:55:38;;;;;;;9.40;8.60;;;;;;;7.46;91.65;100201.84;5092490;28;20188;-67
2022/11/28 02:58:05;;;;;;;9.43;8.63;;;;;;;7.46;91.23;100202.69;5092620;28;20615;-67
2022/11/28 03:00:34;;;;;;;9.37;8.20;;;;;;;7.46;91.82;100204.50;5092382;28;20202;-66
2022/11/28 03:03:26;;;;;;;9.73;8.73;;;;;;;7.56;91.66;100205.22;5092549;28;20305;-66
2022/11/28 03:05:58;;;;;;;9.00;8.10;;;;;;;7.60;90.86;100207.38;5092938;28;20188;-66
2022/11/28 03:08:37;;;;;;;10.23;9.07;;;;;;;7.64;90.34;100211.34;5072541;28;20192;-65
2022/11/28 03:11:13;;;;;;;9.57;8.57;;;;;;;7.71;90.44;100214.19;5072100;28;20724;-66
2022/11/28 03:13:47;;;;;;;10.00;9.03;;;;;;;7.76;89.42;100211.91;5072226;28;20183;-66
2022/11/28 03:16:25;;;;;;;10.10;8.87;;;;;;;7.82;89.42;100214.75;5072519;28;20191;-66
2022/11/28 03:19:01;;;;;;;10.47;8.70;;;;;;;7.85;89.17;100213.59;5072151;28;20234;-66
2022/11/28 03:21:37;;;;;;;12.23;10.07;;;;;;;7.87;88.46;100201.84;5071815;28;20760;-66
2022/11/28 03:24:10;;;;;;;11.40;9.07;;;;;;;7.90;88.09;100211.28;5072316;28;20242;-66
2022/11/28 03:26:45;;;;;;;9.93;8.93;;;;;;;7.93;88.21;100210.97;5071860;28;20555;-66
2022/11/28 03:29:16;;;;;;;11.20;9.17;;;;;;;8.00;88.90;100211.97;5072140;28;20241;-67
2022/11/28 03:31:49;;;;;;;9.33;8.20;;;;;;;7.98;89.03;100198.91;5072983;28;20253;-66
2022/11/28 03:34:20;;;;;;;10.20;8.70;;;;;;;8.03;87.43;100206.34;5072320;28;20192;-66
2022/11/28 03:36:52;;;;;;;9.33;8.30;;;;;;;8.05;87.48;100214.97;5074500;28;20195;-66
2022/11/28 03:39:22;;;;;;;10.37;9.27;;;;;;;8.05;87.61;100209.66;5076212;28;20184;-66
2022/11/28 03:41:55;;;;;;;11.43;10.23;;;;;;;8.03;87.02;100214.28;5075703;28;20219;-65
2022/11/28 03:44:27;;;;;;;9.87;8.90;;;;;;;8.00;86.70;100212.78;5076187;28;20237;-65
2022/11/28 03:46:57;;;;;;;13.70;10.80;;;;;;;7.93;85.81;100209.13;5076217;28;20620;-65
2022/11/28 03:49:30;;;;;;;11.40;10.20;;;;;;;7.84;85.15;100214.56;5076169;28;20211;-65
2022/11/28 03:52:02;;;;;;;10.20;9.10;;;;;;;7.84;86.47;100217.22;5075741;28;20183;-65
2022/11/28 03:54:34;;;;;;;16.30;11.00;;;;;;;7.75;87.05;100212.88;5075584;28;20647;-65
2022/11/28 03:57:09;;;;;;;12.93;11.57;;;;;;;7.76;88.14;100209.25;5076760;28;20180;-66
2022/11/28 03:59:41;;;;;;;11.37;9.83;;;;;;;7.74;88.50;100211.22;5075875;28;20317;-65
2022/11/28 04:02:20;;;;;;;12.33;9.53;;;;;;;7.78;88.64;100215.19;5076054;28;20210;-65
2022/11/28 04:04:55;;;;;;;13.50;10.20;;;;;;;7.79;90.38;100209.75;5075743;28;20184;-66
2022/11/28 04:07:28;;;;;;;17.37;12.27;;;;;;;7.81;90.06;100217.53;5088347;28;20615;-66
2022/11/28 04:10:02;;;;;;;11.83;10.00;;;;;;;7.82;90.32;100208.59;5095872;28;20191;-65
2022/11/28 04:12:39;;;;;;;11.23;10.07;;;;;;;7.84;90.54;100217.22;5095612;28;20246;-65
2022/11/28 04:15:11;;;;;;;12.57;10.03;;;;;;;7.79;88.08;100222.13;5096415;28;20183;-65
2022/11/28 04:17:45;;;;;;;11.37;9.13;;;;;;;7.74;87.84;100227.94;5095554;28;20231;-65
2022/11/28 04:20:18;;;;;;;11.10;9.57;;;;;;;7.63;87.50;100222.13;5095398;28;20651;-65
2022/11/28 04:22:48;;;;;;;10.33;9.27;;;;;;;7.60;87.06;100225.88;5095318;28;20207;-65
2022/11/28 04:25:20;;;;;;;10.70;9.60;;;;;;;7.61;87.17;100232.00;5095344;28;20191;-64
2022/11/28 04:27:51;;;;;;;11.30;9.03;;;;;;;7.61;88.22;100232.00;5095715;28;20187;-64
2022/11/28 04:30:18;;;;;;;11.03;9.50;;;;;;;7.63;89.01;100233.50;5086549;28;20651;-64
2022/11/28 04:32:49;;;;;;;10.90;9.77;;;;;;;7.57;89.52;100225.38;5074750;28;20230;-64
2022/11/28 04:35:23;;;;;;;10.30;9.27;;;;;;;7.46;87.49;100233.56;5074941;28;20195;-64
2022/11/28 04:37:52;;;;;;;10.53;9.53;;;;;;;7.48;87.74;100231.63;5075115;28;20646;-65
2022/11/28 04:40:22;;;;;;;10.60;9.50;;;;;;;7.50;88.37;100229.63;5074860;28;20198;-65
2022/11/28 04:42:53;;;;;;;11.73;10.50;;;;;;;7.56;88.82;100234.31;5075454;28;20610;-65
2022/11/28 04:45:24;;;;;;;10.67;9.57;;;;;;;7.63;88.89;100230.03;5074854;28;20250;-66
2022/11/28 04:47:51;;;;;;;11.20;10.10;;;;;;;7.66;88.38;100235.00;5073462;28;20192;-67
2022/11/28 04:50:19;;;;;;;10.93;9.73;;;;;;;7.68;89.82;100235.69;5074387;28;20256;-67
2022/11/28 04:52:54;;;;;;;11.33;9.73;;;;;;;7.63;89.63;100230.84;5074728;28;20265;-66
2022/11/28 04:55:30;;;;;;;13.23;10.00;;;;;;;7.77;91.72;100237.34;5074968;28;20663;-66
2022/11/28 04:58:03;;;;;;;10.27;9.17;;;;;;;7.80;87.82;100247.63;5074419;28;20183;-68
2022/11/28 05:00:32;;;;;;;8.03;7.27;;;;;;;7.76;86.66;100246.28;5074326;28;20721;-68
2022/11/28 05:02:59;;;;;;;9.00;8.17;;;;;;;7.89;90.68;100247.50;5074149;28;20219;-68
2022/11/28 05:05:29;;;;;;;9.33;7.90;;;;;;;8.05;87.05;100252.00;5074391;28;20286;-68
2022/11/28 05:07:57;;;;;;;10.10;9.07;;;;;;;8.07;86.05;100253.50;5091732;28;20287;-68
2022/11/28 05:10:24;;;;;;;10.13;8.73;;;;;;;8.03;86.53;100254.81;5094650;28;20327;-68
2022/11/28 05:12:50;;;;;;;9.73;8.73;;;;;;;8.04;87.74;100255.63;5094400;28;20195;-68
2022/11/28 05:15:18;;;;;;;12.40;9.47;;;;;;;7.99;89.17;100249.97;5094509;28;20631;-68
2022/11/28 05:17:45;;;;;;;12.00;10.30;;;;;;;7.92;89.07;100251.63;5094206;28;20231;-68
2022/11/28 05:20:12;;;;;;;10.73;9.27;;;;;;;7.84;89.33;100248.97;5094153;28;20646;-68
2022/11/28 05:22:40;;;;;;;10.70;8.77;;;;;;;7.83;89.67;100247.28;5094415;28;20222;-68
2022/11/28 05:25:08;;;;;;;10.93;9.70;;;;;;;7.75;90.39;100240.16;5094253;28;20241;-68
2022/11/28 05:27:34;;;;;;;10.57;9.27;;;;;;;7.74;90.13;100235.03;5093729;28;20191;-68
2022/11/28 05:30:01;;;;;;;9.83;8.93;;;;;;;7.72;90.31;100237.00;5087414;28;20238;-68
2022/11/28 05:32:29;;;;;;;12.33;9.43;;;;;;;7.70;90.54;100231.88;5074464;28;20226;-68
2022/11/28 05:34:56;;;;;;;10.37;8.30;;;;;;;7.64;90.91;100235.16;5073475;28;20288;-68
2022/11/28 05:37:24;;;;;;;9.23;8.33;;;;;;;7.63;90.99;100235.34;5073588;28;20192;-68
2022/11/28 05:39:52;;;;;;;8.90;8.07;;;;;;;7.59;90.92;100232.16;5073307;28;20204;-68
2022/11/28 05:42:19;;;;;;;9.93;8.83;;;;;;;7.57;90.44;100233.31;5073241;28;20260;-68
2022/11/28 05:44:47;;;;;;;12.93;11.50;;;;;;;7.56;91.63;100234.31;5073509;28;20192;-68
2022/11/28 05:47:15;;;;;;;10.83;9.70;;;;;;;7.53;90.50;100245.19;5073440;28;20271;-68
2022/11/28 05:49:42;;;;;;;15.73;11.70;;;;;;;7.37;90.01;100218.69;5073381;28;20198;-68
2022/11/28 05:52:09;;;;;;;17.23;12.07;;;;;;;7.34;90.14;100242.75;5073530;28;20626;-68
2022/11/28 05:54:36;;;;;;;20.23;15.03;;;;;;;7.12;91.25;100219.53;5072960;28;20741;-68
2022/11/28 05:57:05;;;;;;;124.43;54.97;;;;;;;7.21;91.47;100237.91;5073603;28;20196;-67
2022/11/28 05:59:31;;;;;;;69.67;37.53;;;;;;;7.23;91.64;100243.06;5073095;28;20288;-68
2022/11/28 06:01:58;;;;;;;57.83;34.67;;;;;;;7.18;92.04;100245.34;5072763;28;20198;-68
2022/11/28 06:04:25;;;;;;;44.87;26.63;;;;;;;7.20;93.41;100243.34;5072659;28;20664;-69
2022/11/28 06:06:52;;;;;;;27.43;20.03;;;;;;;7.25;94.31;100241.06;5081411;28;20248;-68
2022/11/28 06:09:19;;;;;;;19.57;15.13;;;;;;;7.26;93.27;100240.09;5092869;28;20256;-68
2022/11/28 06:11:45;;;;;;;18.93;15.43;;;;;;;7.17;92.73;100238.38;5088430;28;20198;-67
2022/11/28 06:14:13;;;;;;;24.37;16.20;;;;;;;7.16;92.73;100249.94;5073054;28;20192;-68
2022/11/28 06:16:41;;;;;;;23.33;18.23;;;;;;;7.14;93.75;100254.56;5072575;28;20740;-68
2022/11/28 06:19:12;;;;;;;14.73;11.53;;;;;;;6.99;92.90;100262.22;5073192;28;20310;-69
2022/11/28 06:21:39;;;;;;;11.50;9.83;;;;;;;6.64;93.21;100225.31;5073714;28;20184;-68
2022/11/28 06:24:07;;;;;;;14.37;11.43;;;;;;;6.80;92.95;100258.91;5072883;28;20224;-68
2022/11/28 06:26:33;;;;;;;10.87;9.77;;;;;;;6.72;93.84;100257.06;5072798;28;20196;-68
2022/11/28 06:29:00;;;;;;;11.23;10.07;;;;;;;6.72;94.93;100258.84;5072873;28;20495;-68
2022/11/28 06:31:31;;;;;;;14.67;12.10;;;;;;;6.71;95.42;100254.56;5091731;28;20195;-68
2022/11/28 06:33:58;;;;;;;16.47;13.23;;;;;;;6.68;95.91;100246.94;5092677;28;20629;-65
2022/11/28 06:36:26;;;;;;;16.77;13.90;;;;;;;6.67;97.25;100248.78;5092527;28;20726;-66
2022/11/28 06:38:53;;;;;;;13.77;11.40;;;;;;;6.62;96.98;100251.00;5092466;28;20681;-67
2022/11/28 06:41:21;;;;;;;12.93;10.73;;;;;;;6.55;97.34;100257.06;5092695;28;20193;-67
2022/11/28 06:43:48;;;;;;;14.17;9.50;;;;;;;6.55;97.63;100259.69;5093110;28;20214;-68
2022/11/28 06:46:17;;;;;;;10.83;9.57;;;;;;;6.48;97.35;100253.38;5092677;28;20196;-68
2022/11/28 06:48:46;;;;;;;11.10;10.00;;;;;;;6.41;97.19;100253.13;5080881;28;20226;-70
2022/11/28 06:51:13;;;;;;;13.90;10.53;;;;;;;6.34;97.73;100261.81;5080515;28;20246;-69
2022/11/28 06:53:40;;;;;;;17.87;11.37;;;;;;;6.36;98.16;100258.03;5090489;28;20856;-72
2022/11/28 06:56:09;;;;;;;12.03;10.77;;;;;;;6.20;98.55;100242.06;5090178;28;20195;-70
2022/11/28 06:58:37;;;;;;;13.10;11.50;;;;;;;6.13;99.35;100246.31;5089686;28;20191;-67
2022/11/28 07:01:08;;;;;;;13.63;11.20;;;;;;;6.07;100.00;100224.94;5091776;28;20203;-68
2022/11/28 07:03:34;;;;;;;13.90;11.60;;;;;;;6.14;100.00;100258.50;5090685;28;20269;-69
2022/11/28 07:06:03;;;;;;;13.77;10.73;;;;;;;6.03;100.00;100257.84;5088043;28;20195;-69
2022/11/28 07:08:31;;;;;;;14.00;11.33;;;;;;;5.85;100.00;100249.09;5070523;28;20214;-68
2022/11/28 07:10:58;;;;;;;14.53;11.90;;;;;;;5.78;100.00;100262.00;5069880;28;20252;-69
2022/11/28 07:13:25;;;;;;;14.87;11.13;;;;;;;5.87;100.00;100249.78;5075676;28;20651;-69
2022/11/28 07:15:52;;;;;;;12.10;10.90;;;;;;;5.67;100.00;100244.59;5091429;28;20195;-68
2022/11/28 07:18:18;;;;;;;10.43;9.53;;;;;;;5.70;100.00;100254.00;5092132;28;20219;-67
2022/11/28 07:20:45;;;;;;;10.70;9.70;;;;;;;5.59;100.00;100246.28;5087862;28;20194;-69
2022/11/28 07:23:13;;;;;;;10.67;9.60;;;;;;;5.69;100.00;100247.88;5087682;28;20294;-67
2022/11/28 07:25:40;;;;;;;11.77;10.67;;;;;;;5.70;100.00;100249.56;5087904;28;20202;-67
2022/11/28 07:28:07;;;;;;;10.17;9.33;;;;;;;5.68;100.00;100250.69;5090540;28;20202;-70
2022/11/28 07:30:34;;;;;;;11.80;10.60;;;;;;;5.56;100.00;100252.69;5087736;28;20252;-70
2022/11/28 07:33:00;;;;;;;11.03;9.93;;;;;;;5.34;100.00;100255.69;5082014;28;20261;-69
2022/11/28 07:35:28;;;;;;;11.57;10.37;;;;;;;5.11;100.00;100241.19;5069848;28;20197;-69
2022/11/28 07:37:54;;;;;;;11.60;10.20;;;;;;;5.15;100.00;100232.03;5070278;28;20250;-70
2022/11/28 07:40:23;;;;;;;9.97;9.03;;;;;;;5.24;100.00;100246.97;5097570;28;20246;-68
2022/11/28 07:42:49;;;;;;;10.80;9.70;;;;;;;5.31;100.00;100247.25;5080202;28;20221;-70
2022/11/28 07:45:16;;;;;;;10.20;9.20;;;;;;;5.19;100.00;100238.69;5111654;28;20194;-68
2022/11/28 07:47:43;;;;;;;10.23;8.20;;;;;;;5.26;100.00;100250.31;5101600;28;20195;-68
2022/11/28 07:50:10;;;;;;;8.17;7.57;;;;;;;5.19;100.00;100251.03;5091560;28;20260;-68
2022/11/28 07:52:37;;;;;;;10.23;9.47;;;;;;;5.22;100.00;100238.41;5091570;28;20247;-68
2022/11/28 07:55:04;;;;;;;8.20;7.47;;;;;;;5.23;100.00;100224.25;5091461;28;20191;-67
2022/11/28 07:57:32;;;;;;;7.60;7.00;;;;;;;5.35;100.00;100235.44;5071050;28;20261;-69
2022/11/28 07:59:59;;;;;;;9.47;8.77;;;;;;;5.28;100.00;100240.44;5071613;28;20226;-69
2022/11/28 08:02:31;;;;;;;9.20;8.40;;;;;;;5.25;100.00;100235.50;5071208;28;20242;-68
2022/11/28 08:04:57;;;;;;;8.63;7.90;;;;;;;5.32;100.00;100233.91;5070166;28;20279;-70
2022/11/28 08:07:24;;;;;;;12.80;11.37;;;;;;;5.31;100.00;100220.91;5071657;28;20207;-70
2022/11/28 08:09:51;;;;;;;11.17;9.40;;;;;;;5.51;100.00;100233.84;5070363;28;20664;-68
2022/11/28 08:12:17;;;;;;;13.97;10.73;;;;;;;5.62;100.00;100231.03;5069357;28;20204;-71
2022/11/28 08:14:46;;;;;;;12.13;10.77;;;;;;;5.71;100.00;100230.13;5090283;28;20248;-69
2022/11/28 08:17:12;;;;;;;11.43;10.27;;;;;;;5.76;100.00;100230.53;5078907;28;20205;-70
2022/11/28 08:19:39;;;;;;;9.70;8.83;;;;;;;5.64;100.00;100230.88;5071412;28;20210;-68
2022/11/28 08:22:06;;;;;;;11.83;10.63;;;;;;;5.81;100.00;100226.66;5073791;28;20667;-70
2022/11/28 08:24:32;;;;;;;10.53;9.70;;;;;;;5.80;100.00;100220.50;5072526;28;20224;-68
2022/11/28 08:26:59;;;;;;;11.17;10.07;;;;;;;5.91;100.00;100227.44;5073188;28;20205;-70
2022/11/28 08:29:26;;;;;;;8.63;7.83;;;;;;;5.60;100.00;100214.53;5077144;28;20622;-71
2022/11/28 08:31:54;;;;;;;7.90;7.40;;;;;;;5.59;100.00;100226.03;5072204;28;20201;-67
2022/11/28 08:34:20;;;;;;;8.87;7.93;;;;;;;5.61;100.00;100224.06;5071909;28;20635;-69
2022/11/28 08:36:47;;;;;;;8.17;7.47;;;;;;;5.78;100.00;100225.94;5073375;28;20664;-66
2022/11/28 08:39:14;;;;;;;8.00;7.30;;;;;;;5.81;100.00;100229.28;5072636;28;20282;-71
2022/11/28 08:41:41;;;;;;;8.33;7.63;;;;;;;5.92;100.00;100231.72;5072252;28;20659;-68
2022/11/28 08:44:08;;;;;;;7.53;6.93;;;;;;;5.79;100.00;100214.41;5073647;28;20304;-70
2022/11/28 08:46:35;;;;;;;10.17;9.17;;;;;;;5.81;100.00;100224.84;5075943;28;20199;-71
2022/11/28 08:49:03;;;;;;;12.90;9.43;;;;;;;5.76;100.00;100217.34;5073996;28;20290;-70
2022/11/28 08:51:30;;;;;;;12.77;10.03;;;;;;;5.91;100.00;100217.69;5073857;28;20197;-70
2022/11/28 08:53:57;;;;;;;15.23;10.47;;;;;;;6.05;99.33;100221.63;5073014;28;20204;-67
2022/11/28 08:56:23;;;;;;;9.60;8.60;;;;;;;6.09;98.77;100218.56;5073626;28;20289;-70
2022/11/28 08:58:50;;;;;;;7.90;7.30;;;;;;;6.15;99.68;100206.56;5072415;28;20204;-70
2022/11/28 09:01:19;;;;;;;11.40;9.87;;;;;;;6.23;99.61;100206.63;5056100;28;20196;-70
2022/11/28 09:03:45;;;;;;;10.43;9.50;;;;;;;6.22;99.57;100202.34;5073041;28;20304;-68
2022/11/28 09:06:15;;;;;;;10.67;9.67;;;;;;;6.14;99.21;100204.91;5075000;28;20194;-69
2022/11/28 09:08:42;;;;;;;19.17;12.60;;;;;;;6.24;98.98;100193.31;5073026;28;20201;-73
2022/11/28 09:11:09;;;;;;;17.43;12.83;;;;;;;6.32;98.45;100201.28;5089133;28;20199;-73
2022/11/28 09:13:36;;;;;;;21.60;13.90;;;;;;;6.23;98.72;100196.09;5072111;28;20250;-71
2022/11/28 09:16:04;;;;;;;22.00;13.23;;;;;;;6.16;98.56;100187.13;5088745;28;20248;-70
2022/11/28 09:18:31;;;;;;;21.93;14.47;;;;;;;6.16;98.60;100192.41;5089310;28;20685;-71
2022/11/28 09:20:58;;;;;;;14.03;11.07;;;;;;;6.20;98.51;100188.50;5093558;28;20547;-70
2022/11/28 09:23:27;;;;;;;10.00;8.93;;;;;;;6.11;97.90;100184.09;5093679;28;20214;-70
2022/11/28 09:25:54;;;;;;;9.20;8.50;;;;;;;6.12;97.79;100181.31;5094024;28;20198;-68
2022/11/28 09:28:21;;;;;;;9.30;8.43;;;;;;;6.19;98.23;100176.25;5092868;28;20244;-70
2022/11/28 09:30:48;;;;;;;8.33;7.63;;;;;;;6.20;98.98;100175.31;5092960;28;20195;-69
2022/11/28 09:33:14;;;;;;;8.90;8.20;;;;;;;6.33;99.43;100167.84;5093107;28;20195;-69
2022/11/28 09:35:42;;;;;;;10.90;9.90;;;;;;;6.41;99.33;100171.34;5093231;28;20260;-68
2022/11/28 09:38:08;;;;;;;8.63;8.03;;;;;;;6.29;99.43;100171.75;5091984;28;20195;-69
2022/11/28 09:40:38;;;;;;;10.23;9.40;;;;;;;6.35;99.16;100173.78;5092672;28;20195;-68
2022/11/28 09:43:15;;;;;;;9.93;9.00;;;;;;;6.41;99.00;100154.69;5092149;28;20667;-68
2022/11/28 09:45:43;;;;;;;9.57;8.83;;;;;;;6.43;98.78;100148.28;5092243;28;20183;-68
2022/11/28 09:48:25;;;;;;;10.10;9.13;;;;;;;6.44;98.44;100138.53;5108429;28;20194;-71
2022/11/28 09:50:55;;;;;;;11.50;10.43;;;;;;;6.55;98.37;100149.69;5100323;28;20254;-69
2022/11/28 09:53:28;;;;;;;22.00;14.33;;;;;;;6.57;98.11;100145.06;5072437;28;20636;-70
2022/11/28 09:56:00;;;;;;;16.27;12.97;;;;;;;6.60;97.58;100138.66;5072862;28;20248;-69
2022/11/28 09:58:32;;;;;;;11.63;10.47;;;;;;;6.71;97.94;100139.25;5071392;28;20189;-68
2022/11/28 10:01:12;;;;;;;11.50;10.27;;;;;;;6.84;96.29;100136.16;5070966;28;20227;-69
2022/11/28 10:03:43;;;;;;;11.77;10.67;;;;;;;6.89;96.95;100128.59;5071673;28;20211;-70
2022/11/28 10:06:17;;;;;;;12.13;10.93;;;;;;;6.88;95.89;100132.25;5075310;28;20188;-68
2022/11/28 10:08:59;;;;;;;14.57;13.07;;;;;;;6.87;95.28;100135.88;5093114;28;20183;-67
2022/11/28 10:11:39;;;;;;;12.23;11.03;;;;;;;7.05;95.69;100128.69;5092904;28;20187;-68
2022/11/28 10:14:37;;;;;;;14.83;11.93;;;;;;;7.20;95.22;100132.41;5093074;28;20249;-67
2022/11/28 10:17:16;;;;;;;11.60;10.27;;;;;;;7.26;95.42;100131.78;5074494;28;20194;-68
2022/11/28 10:19:49;;;;;;;13.83;11.57;;;;;;;7.47;95.49;100127.69;5071297;28;20193;-69
2022/11/28 10:22:23;;;;;;;13.53;12.33;;;;;;;7.42;93.98;100121.22;5087299;28;20194;-68
2022/11/28 10:24:53;;;;;;;13.30;11.87;;;;;;;7.47;94.36;100113.69;5113282;28;20213;-69
2022/11/28 10:27:33;;;;;;;10.33;9.37;;;;;;;7.55;94.50;100121.63;5112393;28;20235;-70
2022/11/28 10:30:05;;;;;;;8.97;8.27;;;;;;;7.62;93.13;100118.16;5106425;28;20244;-69
2022/11/28 10:32:36;;;;;;;9.83;9.03;;;;;;;7.55;91.97;100117.16;5092394;28;20635;-68
2022/11/28 10:35:07;;;;;;;9.40;8.60;;;;;;;7.45;92.24;100105.06;5092509;28;20252;-69
2022/11/28 10:37:36;;;;;;;11.40;9.67;;;;;;;7.57;92.89;100106.41;5092792;28;20195;-68
2022/11/28 10:40:17;;;;;;;18.43;11.80;;;;;;;7.79;92.49;100097.84;5093151;28;20190;-67
2022/11/28 10:42:54;;;;;;;8.53;7.73;;;;;;;7.82;90.41;100097.53;5091962;28;20181;-68
2022/11/28 10:45:27;;;;;;;15.80;14.00;;;;;;;7.74;90.35;100101.00;5091216;28;20271;-67
2022/11/28 10:48:08;;;;;;;18.70;15.67;;;;;;;7.65;90.34;100098.50;5105451;28;20666;-71
2022/11/28 10:50:42;;;;;;;20.53;17.20;;;;;;;7.70;92.40;100096.19;5111733;28;20182;-68
2022/11/28 10:53:19;;;;;;;15.83;14.33;;;;;;;7.75;93.08;100086.78;5111801;28;20186;-69
2022/11/28 10:55:58;;;;;;;7.33;6.90;;;;;;;7.87;91.66;100090.78;5111511;28;20746;-67
2022/11/28 10:58:32;;;;;;;8.33;7.73;;;;;;;7.82;90.15;100092.25;5112007;28;20187;-71
2022/11/28 11:01:00;;;;;;;9.10;8.50;;;;;;;7.82;91.03;100082.50;5072000;28;20187;-68
2022/11/28 11:03:31;;;;;;;11.50;10.30;;;;;;;7.71;91.14;100079.34;5071649;28;20196;-71
2022/11/28 11:05:57;;;;;;;11.47;10.27;;;;;;;7.83;92.74;100076.22;5072348;28;20195;-70
2022/11/28 11:08:27;;;;;;;7.53;6.93;;;;;;;7.91;92.89;100070.09;5092000;28;20193;-68
2022/11/28 11:11:01;;;;;;;6.80;6.37;;;;;;;8.05;90.51;100082.69;5091324;28;20187;-69
2022/11/28 11:13:32;;;;;;;7.87;7.37;;;;;;;8.15;90.20;100064.81;5070983;28;20199;-70
2022/11/28 11:16:01;;;;;;;7.13;6.53;;;;;;;8.32;89.84;100071.75;5074035;28;20711;-67
2022/11/28 11:18:31;;;;;;;7.43;6.93;;;;;;;8.33;88.59;100055.72;5090284;28;20235;-70
2022/11/28 11:21:15;;;;;;;7.60;7.10;;;;;;;8.36;87.46;100065.13;5090631;28;20187;-67
2022/11/28 11:23:42;;;;;;;10.07;9.27;;;;;;;8.37;88.16;100051.75;5086537;28;20203;-69
2022/11/28 11:26:22;;;;;;;8.40;7.83;;;;;;;8.36;86.15;100054.56;5089610;28;20187;-67
2022/11/28 11:28:51;;;;;;;8.93;8.30;;;;;;;8.40;86.31;100062.00;5070734;28;20184;-70
2022/11/28 11:31:24;;;;;;;7.30;6.90;;;;;;;8.27;87.36;100055.56;5070953;28;20202;-70
2022/11/28 11:33:53;;;;;;;7.07;6.57;;;;;;;8.18;87.05;100061.84;5071626;28;20191;-71
2022/11/28 11:36:26;;;;;;;8.97;8.13;;;;;;;8.12;88.32;100046.59;5070873;28;20261;-72
2022/11/28 11:39:05;;;;;;;9.63;8.83;;;;;;;8.20;87.04;100043.97;5070900;28;20613;-68